Time;durP1;ratioP1;P1;durP2;ratioP2;P2;SDS_P1;SDS_P2;PMS_P1;PMS_P2;Temp;Humidity;BMP_temperature;BMP_pressure;BME280_temperature;BME280_humidity;BME280_pressure;Samples;Min_cycle;Max_cycle;Signal;HPM_P1;HPM_P2
2022/12/03 00:01:55;;;;;;;37.85;21.75;;;;;;;7.12;99.87;100292.72;5051109;28;20033;-67
2022/12/03 00:04:21;;;;;;;47.55;23.17;;;;;;;7.11;100.00;100307.72;5053031;28;20094;-67
2022/12/03 00:06:47;;;;;;;38.65;20.33;;;;;;;7.27;100.00;100308.41;5035193;28;20020;-67
2022/12/03 00:09:12;;;;;;;38.90;23.45;;;;;;;7.28;100.00;100310.06;5052087;28;20480;-67
2022/12/03 00:11:38;;;;;;;34.60;19.75;;;;;;;7.08;100.00;100322.22;5053079;28;20530;-67
2022/12/03 00:14:03;;;;;;;39.65;20.13;;;;;;;6.83;100.00;100324.06;5052716;28;20466;-67
2022/12/03 00:16:29;;;;;;;39.33;19.38;;;;;;;6.62;100.00;100309.47;5034306;28;20374;-67
2022/12/03 00:18:54;;;;;;;32.90;20.33;;;;;;;6.66;100.00;100323.66;5052803;28;20094;-67
2022/12/03 00:21:20;;;;;;;39.03;19.52;;;;;;;7.01;100.00;100330.06;5051626;28;20025;-67
2022/12/03 00:23:45;;;;;;;34.45;18.27;;;;;;;7.17;100.00;100327.97;5034711;28;20028;-67
2022/12/03 00:26:10;;;;;;;30.70;16.83;;;;;;;7.28;100.00;100323.97;5034780;28;20020;-67
2022/12/03 00:28:36;;;;;;;27.75;15.95;;;;;;;7.28;100.00;100325.94;5034701;28;20020;-67
2022/12/03 00:31:01;;;;;;;34.53;17.13;;;;;;;7.25;100.00;100326.53;5050966;28;20028;-67
2022/12/03 00:33:27;;;;;;;31.30;16.58;;;;;;;7.40;100.00;100326.41;5046908;28;20025;-67
2022/12/03 00:35:52;;;;;;;23.60;13.95;;;;;;;7.52;100.00;100330.75;5051554;28;20412;-67
2022/12/03 00:38:18;;;;;;;24.92;13.60;;;;;;;7.57;99.65;100333.47;5034588;28;20025;-67
2022/12/03 00:40:43;;;;;;;25.75;14.27;;;;;;;7.62;99.24;100336.22;5051000;28;20511;-67
2022/12/03 00:43:09;;;;;;;31.05;15.95;;;;;;;7.63;99.24;100332.31;5033808;28;20032;-67
2022/12/03 00:45:34;;;;;;;24.38;14.60;;;;;;;7.49;98.82;100332.16;5052115;28;20055;-67
2022/12/03 00:48:00;;;;;;;24.02;14.05;;;;;;;7.23;100.00;100323.19;5052159;28;20049;-67
2022/12/03 00:50:25;;;;;;;23.42;14.00;;;;;;;7.19;100.00;100330.47;5051019;28;20039;-67
2022/12/03 00:52:51;;;;;;;30.17;14.65;;;;;;;7.32;100.00;100324.25;5034251;28;20024;-68
2022/12/03 00:55:16;;;;;;;25.60;15.52;;;;;;;7.41;100.00;100339.19;5052008;28;20020;-67
2022/12/03 00:57:42;;;;;;;26.48;15.38;;;;;;;7.45;100.00;100331.91;5034047;28;20037;-67
2022/12/03 01:00:09;;;;;;;27.88;15.48;;;;;;;7.43;100.00;100328.59;5051160;28;20048;-67
2022/12/03 01:02:35;;;;;;;28.38;15.50;;;;;;;7.51;100.00;100341.03;5051911;28;20025;-67
2022/12/03 01:05:00;;;;;;;26.40;14.18;;;;;;;7.57;99.81;100344.59;5051107;28;20033;-67
2022/12/03 01:07:26;;;;;;;25.33;15.85;;;;;;;7.41;100.00;100347.53;5052044;28;20023;-67
2022/12/03 01:09:51;;;;;;;25.92;15.65;;;;;;;7.36;100.00;100344.81;5051809;28;20025;-67
2022/12/03 01:12:17;;;;;;;29.38;14.80;;;;;;;7.54;99.59;100343.25;5051629;28;20029;-67
2022/12/03 01:14:43;;;;;;;27.95;15.38;;;;;;;7.65;99.18;100349.53;5050315;28;20087;-67
2022/12/03 01:17:08;;;;;;;27.80;14.13;;;;;;;7.71;98.31;100351.13;5032557;28;20041;-67
2022/12/03 01:19:34;;;;;;;24.80;14.93;;;;;;;7.69;98.32;100347.81;5033809;28;20446;-67
2022/12/03 01:22:01;;;;;;;23.42;15.23;;;;;;;7.69;98.32;100353.38;5051641;28;20029;-67
2022/12/03 01:24:26;;;;;;;26.48;15.45;;;;;;;7.77;98.03;100353.88;5033835;28;20013;-67
2022/12/03 01:26:52;;;;;;;22.70;13.77;;;;;;;7.75;97.80;100356.13;5033688;28;20423;-67
2022/12/03 01:29:17;;;;;;;25.52;14.65;;;;;;;7.61;98.40;100361.56;5050920;28;20032;-67
2022/12/03 01:34:27;;;;;;;23.40;14.13;;;;;;;7.68;98.23;100367.63;5051802;28;20127;-67
2022/12/03 01:36:53;;;;;;;25.60;14.20;;;;;;;7.76;97.58;100368.94;5050428;28;20033;-67
2022/12/03 01:39:19;;;;;;;22.92;13.63;;;;;;;7.59;97.88;100364.63;5051353;28;20028;-67
2022/12/03 01:41:46;;;;;;;26.35;14.75;;;;;;;7.64;98.69;100372.09;5050738;28;20048;-67
2022/12/03 01:44:22;;;;;;;24.95;13.73;;;;;;;7.69;98.33;100372.06;5050338;28;20074;-68
2022/12/03 01:46:49;;;;;;;25.88;14.63;;;;;;;7.75;98.06;100376.44;5054125;28;20028;-67
2022/12/03 01:49:21;;;;;;;27.05;14.45;;;;;;;7.64;98.05;100372.94;5053354;28;20039;-67
2022/12/03 01:51:48;;;;;;;22.63;15.15;;;;;;;7.71;97.78;100370.63;5053857;28;20488;-67
2022/12/03 01:54:41;;;;;;;25.70;14.68;;;;;;;7.76;97.51;100375.31;5051263;28;20424;-67
2022/12/03 01:57:35;;;;;;;24.55;14.15;;;;;;;7.79;97.20;100371.13;5020889;28;20135;-67
2022/12/03 02:00:01;;;;;;;24.85;14.73;;;;;;;7.83;97.06;100370.25;5032509;28;20500;-67
2022/12/03 02:02:29;;;;;;;27.92;15.10;;;;;;;7.78;96.95;100369.47;5033248;28;20067;-67
2022/12/03 02:04:56;;;;;;;32.05;14.90;;;;;;;7.54;98.21;100371.09;5050550;28;20029;-67
2022/12/03 02:07:30;;;;;;;31.02;15.95;;;;;;;7.60;97.96;100371.84;5048666;28;20432;-67
2022/12/03 02:09:59;;;;;;;28.58;14.63;;;;;;;7.71;98.29;100381.75;5014318;28;20408;-67
2022/12/03 02:12:33;;;;;;;29.85;17.42;;;;;;;7.76;97.38;100377.28;5030987;28;20489;-67
2022/12/03 02:14:59;;;;;;;35.55;15.85;;;;;;;7.79;97.13;100377.53;5033141;28;20034;-68
2022/12/03 02:17:26;;;;;;;32.85;15.25;;;;;;;7.81;97.16;100375.28;5033002;28;20202;-67
2022/12/03 02:19:52;;;;;;;26.70;16.58;;;;;;;7.71;97.36;100369.81;5048844;28;20376;-67
2022/12/03 02:22:32;;;;;;;28.67;16.92;;;;;;;7.60;98.09;100377.41;5049916;28;20032;-67
2022/12/03 02:24:58;;;;;;;32.35;16.63;;;;;;;7.51;98.54;100373.63;5050963;28;20449;-67
2022/12/03 02:27:24;;;;;;;32.95;17.73;;;;;;;7.36;99.57;100364.28;5032886;28;20124;-67
2022/12/03 02:29:50;;;;;;;29.85;16.45;;;;;;;7.54;99.43;100368.31;5050813;28;20159;-67
2022/12/03 02:32:16;;;;;;;24.33;15.38;;;;;;;7.64;98.80;100375.72;5049827;28;20029;-70
2022/12/03 02:34:45;;;;;;;26.98;15.25;;;;;;;7.68;98.17;100379.56;5049631;28;20036;-67
2022/12/03 02:37:18;;;;;;;23.33;15.30;;;;;;;7.64;98.12;100372.94;5032893;28;20060;-67
2022/12/03 02:39:50;;;;;;;36.42;15.90;;;;;;;7.36;99.81;100358.72;5050753;28;20411;-67
2022/12/03 02:42:35;;;;;;;28.05;15.05;;;;;;;7.17;100.00;100358.59;5048532;28;20079;-67
2022/12/03 02:45:18;;;;;;;31.20;15.98;;;;;;;7.09;100.00;100362.00;5050597;28;20029;-67
2022/12/03 02:48:15;;;;;;;33.28;16.85;;;;;;;7.15;100.00;100364.47;5021778;28;20072;-67
2022/12/03 02:50:49;;;;;;;32.40;17.20;;;;;;;7.19;100.00;100363.88;5029847;28;20044;-67
2022/12/03 02:53:25;;;;;;;29.38;18.13;;;;;;;7.08;100.00;100365.91;5014927;28;20033;-67
2022/12/03 02:55:53;;;;;;;32.97;17.50;;;;;;;7.08;100.00;100363.13;5034301;28;20024;-67
2022/12/03 02:58:20;;;;;;;30.25;18.23;;;;;;;7.13;100.00;100369.50;5034371;28;20025;-67
2022/12/03 03:00:48;;;;;;;27.10;16.52;;;;;;;6.95;100.00;100361.81;5033642;28;20025;-67
2022/12/03 03:03:15;;;;;;;28.42;15.90;;;;;;;6.84;100.00;100358.28;5032866;28;20471;-67
2022/12/03 03:05:41;;;;;;;28.10;16.52;;;;;;;6.73;100.00;100360.28;5016574;28;20040;-67
2022/12/03 03:08:08;;;;;;;29.60;16.00;;;;;;;6.79;100.00;100358.31;5034054;28;20108;-67
2022/12/03 03:10:34;;;;;;;26.42;15.88;;;;;;;6.71;100.00;100355.03;5034079;28;20037;-67
2022/12/03 03:13:03;;;;;;;28.63;17.20;;;;;;;6.74;100.00;100368.34;5033998;28;20079;-68
2022/12/03 03:15:29;;;;;;;26.75;16.35;;;;;;;6.85;100.00;100357.97;5033181;28;20084;-67
2022/12/03 03:17:54;;;;;;;30.40;15.80;;;;;;;6.73;100.00;100360.28;5033288;28;20475;-67
2022/12/03 03:20:20;;;;;;;35.97;22.02;;;;;;;6.85;100.00;100363.53;5034038;28;20429;-67
2022/12/03 03:22:45;;;;;;;26.70;17.05;;;;;;;6.83;100.00;100364.97;5016072;28;20029;-67
2022/12/03 03:25:16;;;;;;;35.47;20.52;;;;;;;6.76;100.00;100370.00;5034014;28;20037;-67
2022/12/03 03:27:43;;;;;;;37.30;20.48;;;;;;;6.73;100.00;100376.97;5033743;28;20029;-67
2022/12/03 03:30:09;;;;;;;39.38;20.60;;;;;;;6.59;100.00;100380.38;5033065;28;20168;-67
2022/12/03 03:32:36;;;;;;;27.52;16.65;;;;;;;6.71;100.00;100381.97;5032232;28;20125;-67
2022/12/03 03:35:09;;;;;;;32.53;17.70;;;;;;;6.77;100.00;100383.63;5033796;28;20030;-67
2022/12/03 03:37:35;;;;;;;33.80;16.40;;;;;;;6.70;100.00;100380.31;5015866;28;20033;-67
2022/12/03 03:40:00;;;;;;;29.13;16.27;;;;;;;6.86;100.00;100389.41;5015941;28;20029;-67
2022/12/03 03:42:26;;;;;;;28.45;16.55;;;;;;;6.92;100.00;100388.25;5015772;28;20029;-67
2022/12/03 03:44:52;;;;;;;33.28;15.85;;;;;;;6.90;100.00;100396.06;5018191;28;20113;-67
2022/12/03 03:47:18;;;;;;;35.78;16.73;;;;;;;6.88;100.00;100392.72;5025812;28;20045;-67
2022/12/03 03:49:46;;;;;;;30.95;16.92;;;;;;;6.67;100.00;100394.81;5033438;28;20040;-67
2022/12/03 03:52:12;;;;;;;39.22;15.88;;;;;;;6.87;100.00;100399.41;5015838;28;20381;-67
2022/12/03 03:54:38;;;;;;;34.83;17.00;;;;;;;6.89;100.00;100394.41;5015534;28;20111;-67
2022/12/03 03:57:04;;;;;;;34.08;17.77;;;;;;;6.80;100.00;100394.19;5033184;28;20030;-67
2022/12/03 03:59:30;;;;;;;35.03;17.67;;;;;;;6.77;100.00;100394.75;5026182;28;20036;-68
2022/12/03 04:01:55;;;;;;;34.58;17.63;;;;;;;6.81;100.00;100401.41;5032887;28;20057;-67
2022/12/03 04:04:25;;;;;;;40.35;20.52;;;;;;;6.87;100.00;100403.00;5013658;28;20063;-67
2022/12/03 04:06:51;;;;;;;37.20;19.65;;;;;;;6.81;100.00;100401.41;5013324;28;20030;-68
2022/12/03 04:09:17;;;;;;;46.15;21.10;;;;;;;6.81;100.00;100401.41;5020576;28;20033;-67
2022/12/03 04:14:26;;;;;;;51.58;19.50;;;;;;;6.71;100.00;100404.22;5033294;28;20056;-67
2022/12/03 04:16:51;;;;;;;47.42;21.90;;;;;;;6.74;100.00;100412.84;5032969;28;20018;-67
2022/12/03 04:19:17;;;;;;;42.40;19.98;;;;;;;6.97;100.00;100415.19;5014025;28;20496;-67
2022/12/03 04:24:26;;;;;;;47.67;21.80;;;;;;;7.14;100.00;100421.22;5032834;28;20029;-67
2022/12/03 04:29:36;;;;;;;65.65;29.02;;;;;;;7.18;100.00;100415.91;5033068;28;20032;-67
2022/12/03 04:37:30;;;;;;;63.78;24.83;;;;;;;7.16;100.00;100416.19;5032486;28;20087;-67
2022/12/03 04:39:55;;;;;;;56.67;23.67;;;;;;;7.09;100.00;100414.88;5031278;28;20455;-67
2022/12/03 04:42:21;;;;;;;62.22;25.13;;;;;;;6.92;100.00;100407.72;5031222;28;20029;-68
2022/12/03 04:44:47;;;;;;;49.67;24.63;;;;;;;6.87;100.00;100408.56;5032280;28;20029;-67
2022/12/03 04:47:16;;;;;;;64.63;25.88;;;;;;;6.78;100.00;100418.66;5027477;28;20048;-67
2022/12/03 04:49:44;;;;;;;55.10;25.40;;;;;;;6.74;100.00;100412.00;5011859;28;20057;-67
2022/12/03 04:52:11;;;;;;;77.65;30.13;;;;;;;6.76;100.00;100420.06;5012521;28;20415;-67
2022/12/03 04:54:37;;;;;;;80.97;30.75;;;;;;;6.75;100.00;100410.88;5011674;28;20109;-67
2022/12/03 04:57:03;;;;;;;76.82;30.33;;;;;;;6.87;100.00;100408.56;5012465;28;20072;-67
2022/12/03 04:59:29;;;;;;;82.93;29.55;;;;;;;6.71;100.00;100415.34;5012340;28;20054;-67
2022/12/03 05:01:54;;;;;;;82.45;29.27;;;;;;;6.64;100.00;100418.44;5002201;28;20113;-67
2022/12/03 05:04:20;;;;;;;71.90;29.05;;;;;;;6.67;100.00;100425.38;4996876;28;20523;-67
2022/12/03 05:06:45;;;;;;;89.57;31.05;;;;;;;6.70;100.00;100427.59;4992731;28;20026;-67
2022/12/03 05:09:11;;;;;;;67.72;28.40;;;;;;;6.65;100.00;100442.34;4993062;28;20026;-68
2022/12/03 05:11:38;;;;;;;62.95;29.15;;;;;;;6.56;100.00;100430.16;5006837;28;20467;-67
2022/12/03 05:14:03;;;;;;;74.70;29.98;;;;;;;6.69;100.00;100435.09;5012028;28;20030;-67
2022/12/03 05:16:29;;;;;;;77.07;30.42;;;;;;;6.83;100.00;100437.28;4993103;28;20076;-67
2022/12/03 05:18:54;;;;;;;96.50;41.85;;;;;;;6.92;100.00;100440.28;5008724;28;20025;-67
2022/12/03 05:21:20;;;;;;;81.45;33.30;;;;;;;6.79;100.00;100436.16;5003817;28;20022;-69
2022/12/03 05:23:45;;;;;;;92.30;33.95;;;;;;;6.60;100.00;100440.41;5000407;28;20401;-68
2022/12/03 05:26:11;;;;;;;92.20;34.58;;;;;;;6.49;100.00;100440.75;4993769;28;20049;-68
2022/12/03 05:28:36;;;;;;;83.75;33.30;;;;;;;6.54;100.00;100443.50;4992622;28;20029;-67
2022/12/03 05:31:03;;;;;;;95.72;39.63;;;;;;;6.57;100.00;100438.22;5006886;28;20497;-66
2022/12/03 05:33:29;;;;;;;85.25;35.85;;;;;;;6.60;100.00;100442.38;5011079;28;20607;-66
2022/12/03 05:35:55;;;;;;;83.57;33.33;;;;;;;6.62;100.00;100442.91;5011828;28;20060;-67
2022/12/03 05:38:20;;;;;;;82.35;34.30;;;;;;;6.69;100.00;100443.44;5010730;28;20155;-71
2022/12/03 05:40:45;;;;;;;77.50;30.20;;;;;;;6.69;100.00;100450.97;4986153;28;20031;-66
2022/12/03 05:43:11;;;;;;;79.15;31.50;;;;;;;6.63;100.00;100455.72;5006800;28;20033;-72
2022/12/03 05:45:41;;;;;;;72.65;30.25;;;;;;;6.59;100.00;100460.19;5008935;28;20108;-69
2022/12/03 05:48:10;;;;;;;78.88;33.60;;;;;;;6.65;100.00;100461.00;5007086;28;20042;-69
2022/12/03 05:50:37;;;;;;;78.07;36.30;;;;;;;6.57;100.00;100467.94;5028661;28;20476;-67
2022/12/03 05:53:03;;;;;;;91.68;36.50;;;;;;;6.52;100.00;100459.63;5031049;28;20072;-69
2022/12/03 05:55:29;;;;;;;92.30;36.67;;;;;;;6.44;100.00;100467.44;5031197;28;20049;-65
2022/12/03 05:57:55;;;;;;;101.85;40.15;;;;;;;6.49;100.00;100483.25;5030282;28;20123;-67
2022/12/03 06:00:23;;;;;;;117.75;47.88;;;;;;;6.55;100.00;100476.59;5010268;28;20060;-68
2022/12/03 06:02:49;;;;;;;123.65;53.15;;;;;;;6.52;100.00;100482.72;5030885;28;20021;-67
2022/12/03 06:05:18;;;;;;;113.97;47.95;;;;;;;6.63;100.00;100482.66;5028871;28;20083;-69
2022/12/03 06:07:44;;;;;;;103.05;43.45;;;;;;;6.57;100.00;100482.69;5024147;28;20374;-67
2022/12/03 06:10:11;;;;;;;153.30;68.38;;;;;;;6.57;100.00;100491.03;5008820;28;20036;-67
2022/12/03 06:12:37;;;;;;;222.90;87.82;;;;;;;6.55;100.00;100492.41;5028872;28;20452;-69
2022/12/03 06:15:03;;;;;;;125.90;53.85;;;;;;;6.60;100.00;100500.75;5013310;28;20026;-66
2022/12/03 06:17:29;;;;;;;133.98;44.90;;;;;;;6.73;100.00;100496.53;5030030;28;20029;-67
2022/12/03 06:19:54;;;;;;;120.43;42.83;;;;;;;6.73;100.00;100500.16;5029068;28;20032;-66
2022/12/03 06:22:20;;;;;;;137.55;47.17;;;;;;;6.58;100.00;100492.69;5028593;28;20018;-66
2022/12/03 06:24:45;;;;;;;142.75;50.30;;;;;;;6.55;100.00;100497.97;5030786;28;20025;-66
2022/12/03 06:27:11;;;;;;;152.18;48.92;;;;;;;6.56;100.00;100494.94;5028506;28;20072;-66
2022/12/03 06:29:36;;;;;;;134.55;40.65;;;;;;;6.65;100.00;100505.47;5016113;28;20037;-69
2022/12/03 06:32:03;;;;;;;121.03;41.17;;;;;;;6.72;100.00;100503.22;5030744;28;20405;-66
2022/12/03 06:34:29;;;;;;;130.85;36.38;;;;;;;6.76;100.00;100507.09;5034021;28;20087;-66
2022/12/03 06:36:54;;;;;;;123.85;38.55;;;;;;;6.78;100.00;100513.22;5015561;28;20034;-67
2022/12/03 06:39:20;;;;;;;115.88;36.40;;;;;;;6.92;100.00;100495.91;5014866;28;20033;-66
2022/12/03 06:41:45;;;;;;;126.13;35.72;;;;;;;6.99;100.00;100504.75;5029589;28;20112;-66
2022/12/03 06:44:11;;;;;;;118.22;37.30;;;;;;;7.09;100.00;100504.72;5014162;28;20022;-66
2022/12/03 06:46:36;;;;;;;124.43;39.35;;;;;;;7.06;100.00;100507.22;5011984;28;20135;-67
2022/12/03 06:49:02;;;;;;;122.43;40.25;;;;;;;7.14;100.00;100510.25;5002381;28;20032;-68
2022/12/03 06:51:27;;;;;;;130.32;39.25;;;;;;;7.14;100.00;100504.69;4988699;28;20033;-67
2022/12/03 06:53:53;;;;;;;126.32;41.90;;;;;;;6.95;100.00;100503.66;4993716;28;20401;-66
2022/12/03 06:56:18;;;;;;;153.70;49.53;;;;;;;6.95;100.00;100506.44;5012318;28;20034;-66
2022/12/03 06:58:44;;;;;;;134.18;44.15;;;;;;;6.84;100.00;100506.50;4989763;28;20500;-66
2022/12/03 07:01:09;;;;;;;149.55;50.30;;;;;;;6.96;100.00;100506.19;4993643;28;20056;-69
2022/12/03 07:03:35;;;;;;;139.90;43.70;;;;;;;6.83;100.00;100504.84;5008389;28;20157;-67
2022/12/03 07:06:00;;;;;;;146.00;45.65;;;;;;;6.91;100.00;100503.41;5008290;28;20080;-70
2022/12/03 07:08:26;;;;;;;132.75;42.55;;;;;;;6.88;100.00;100502.03;5009932;28;20045;-68
2022/12/03 07:10:52;;;;;;;125.05;41.75;;;;;;;6.88;100.00;100517.88;5012282;28;20026;-69
2022/12/03 07:13:18;;;;;;;142.40;44.08;;;;;;;6.93;100.00;100514.25;5003686;28;20125;-68
2022/12/03 07:15:43;;;;;;;146.57;42.38;;;;;;;6.93;100.00;100508.69;4991427;28;20085;-67
2022/12/03 07:18:09;;;;;;;130.05;43.03;;;;;;;6.90;100.00;100512.06;4995247;28;20096;-70
2022/12/03 07:20:35;;;;;;;168.88;69.18;;;;;;;6.79;100.00;100511.25;5006183;28;20038;-68
2022/12/03 07:23:00;;;;;;;134.75;44.60;;;;;;;6.90;100.00;100520.41;4991058;28;20026;-67
2022/12/03 07:25:26;;;;;;;125.15;42.83;;;;;;;7.05;100.00;100516.69;5009653;28;20477;-68
2022/12/03 07:27:51;;;;;;;138.50;44.92;;;;;;;6.93;100.00;100525.38;4993244;28;20029;-68
2022/12/03 07:30:17;;;;;;;123.00;41.95;;;;;;;7.09;100.00;100529.75;5011853;28;20037;-66
2022/12/03 07:32:43;;;;;;;114.07;37.67;;;;;;;7.19;100.00;100525.25;5012600;28;20030;-68
2022/12/03 07:35:08;;;;;;;111.10;39.92;;;;;;;7.21;100.00;100532.22;5000157;28;20065;-68
2022/12/03 07:37:34;;;;;;;121.93;42.90;;;;;;;7.24;100.00;100519.66;5013978;28;20030;-67
2022/12/03 07:39:59;;;;;;;118.32;43.13;;;;;;;7.33;99.25;100523.50;4993375;28;20041;-66
2022/12/03 07:42:25;;;;;;;110.57;39.85;;;;;;;7.29;98.81;100525.19;5002848;28;20480;-67
2022/12/03 07:44:51;;;;;;;115.43;40.03;;;;;;;7.06;100.00;100524.75;4992661;28;20030;-68
2022/12/03 07:47:16;;;;;;;124.93;42.80;;;;;;;7.07;100.00;100523.66;4998592;28;20433;-67
2022/12/03 07:49:42;;;;;;;125.80;45.78;;;;;;;7.10;100.00;100523.06;5026863;28;20036;-67
2022/12/03 07:52:07;;;;;;;118.95;42.10;;;;;;;7.21;100.00;100521.06;5030721;28;20033;-68
2022/12/03 07:54:33;;;;;;;134.10;45.10;;;;;;;7.26;100.00;100523.00;5028038;28;20029;-67
2022/12/03 07:56:59;;;;;;;130.30;44.13;;;;;;;7.23;100.00;100524.41;5011541;28;20564;-68
2022/12/03 07:59:24;;;;;;;133.27;42.10;;;;;;;7.22;100.00;100519.09;5011084;28;20111;-68
2022/12/03 08:01:50;;;;;;;147.00;52.80;;;;;;;7.27;100.00;100522.69;5011322;28;20034;-67
2022/12/03 08:04:17;;;;;;;145.00;47.72;;;;;;;7.22;100.00;100519.97;5021070;28;20034;-68
2022/12/03 08:06:43;;;;;;;180.43;59.05;;;;;;;7.33;100.00;100517.94;5022780;28;20079;-72
2022/12/03 08:09:09;;;;;;;132.93;48.08;;;;;;;7.30;100.00;100530.50;5011707;28;20034;-71
2022/12/03 08:11:34;;;;;;;152.13;66.68;;;;;;;7.31;100.00;100531.31;5006685;28;20026;-69
2022/12/03 08:14:06;;;;;;;169.93;61.80;;;;;;;7.52;100.00;100531.19;5022627;28;20041;-72
2022/12/03 08:16:35;;;;;;;136.40;52.38;;;;;;;7.51;100.00;100530.34;5029416;28;20595;-73
2022/12/03 08:19:01;;;;;;;129.03;46.90;;;;;;;7.57;100.00;100531.16;5029961;28;20104;-71
2022/12/03 08:21:33;;;;;;;147.85;49.38;;;;;;;7.49;100.00;100532.59;5027869;28;20032;-72
2022/12/03 08:24:21;;;;;;;149.20;49.88;;;;;;;7.53;99.94;100530.06;5027738;28;20048;-73
2022/12/03 08:26:47;;;;;;;149.93;54.03;;;;;;;7.49;99.86;100535.38;5003197;28;20076;-72
2022/12/03 08:29:16;;;;;;;135.60;47.30;;;;;;;7.61;99.61;100523.91;5013138;28;20511;-70
2022/12/03 08:31:50;;;;;;;175.50;69.38;;;;;;;7.63;99.69;100524.44;5027789;28;20137;-69
2022/12/03 08:34:26;;;;;;;178.38;78.80;;;;;;;7.65;99.29;100522.19;5010700;28;20041;-74
2022/12/03 08:36:58;;;;;;;164.13;59.67;;;;;;;7.69;98.43;100528.03;5012234;28;20514;-69
2022/12/03 08:39:43;;;;;;;122.15;49.42;;;;;;;7.66;97.61;100526.63;5030084;28;20418;-71
2022/12/03 08:45:27;;;;;;;136.05;50.90;;;;;;;7.79;97.70;100529.88;5028732;28;20108;-70
2022/12/03 08:48:23;;;;;;;127.07;47.38;;;;;;;7.85;97.42;100539.88;5018288;28;20538;-70
2022/12/03 08:50:49;;;;;;;144.48;50.47;;;;;;;7.95;97.89;100534.19;5028525;28;20036;-72
2022/12/03 08:53:34;;;;;;;139.50;48.33;;;;;;;8.01;98.97;100541.41;5011960;28;20026;-70
2022/12/03 08:56:24;;;;;;;138.77;44.60;;;;;;;7.92;98.41;100531.19;5010416;28;20025;-71
2022/12/03 08:59:16;;;;;;;134.32;50.00;;;;;;;7.76;99.65;100527.69;5019127;28;20139;-72
2022/12/03 09:01:44;;;;;;;138.23;48.67;;;;;;;7.67;100.00;100525.50;5025095;28;20047;-71
2022/12/03 09:04:39;;;;;;;139.43;52.40;;;;;;;7.71;100.00;100515.44;5023752;28;20018;-70
2022/12/03 09:07:04;;;;;;;225.43;99.28;;;;;;;7.75;100.00;100517.66;5009422;28;20109;-73
2022/12/03 09:09:30;;;;;;;175.45;74.18;;;;;;;7.79;100.00;100524.31;5027036;28;20029;-69
2022/12/03 09:11:56;;;;;;;141.73;53.28;;;;;;;7.79;100.00;100518.75;5027406;28;20408;-68
2022/12/03 09:14:22;;;;;;;155.98;50.80;;;;;;;7.89;100.00;100512.25;5024683;28;20044;-69
2022/12/03 09:16:54;;;;;;;160.05;52.42;;;;;;;8.10;98.31;100515.72;5005459;28;20122;-67
2022/12/03 09:19:26;;;;;;;142.73;49.55;;;;;;;7.97;99.21;100514.41;5024658;28;20041;-67
2022/12/03 09:21:53;;;;;;;141.20;53.30;;;;;;;8.04;98.96;100516.88;5007447;28;20029;-68
2022/12/03 09:24:18;;;;;;;192.13;94.40;;;;;;;7.93;100.00;100514.16;5009065;28;20420;-68
2022/12/03 09:26:44;;;;;;;192.52;95.93;;;;;;;7.91;99.43;100512.81;5028232;28;20104;-67
2022/12/03 09:29:10;;;;;;;131.15;52.50;;;;;;;8.05;99.63;100510.16;5009165;28;20355;-67
2022/12/03 09:31:35;;;;;;;131.85;49.33;;;;;;;8.24;97.55;100516.69;5028922;28;20013;-67
2022/12/03 09:34:02;;;;;;;113.25;44.22;;;;;;;8.15;98.18;100510.06;5011155;28;20034;-66
2022/12/03 09:36:27;;;;;;;116.97;48.67;;;;;;;8.19;97.68;100515.91;5028989;28;20485;-67
2022/12/03 09:38:53;;;;;;;116.63;51.10;;;;;;;8.27;97.76;100510.50;5025796;28;20056;-67
2022/12/03 09:41:18;;;;;;;101.18;41.85;;;;;;;8.40;96.49;100511.78;4997650;28;20026;-65
2022/12/03 09:43:44;;;;;;;76.88;33.45;;;;;;;8.23;96.09;100506.66;5011817;28;20133;-66
2022/12/03 09:46:09;;;;;;;105.35;44.00;;;;;;;8.26;95.86;100511.63;5010913;28;20040;-67
2022/12/03 09:48:35;;;;;;;123.57;47.75;;;;;;;8.32;95.90;100511.56;5010532;28;20050;-67
2022/12/03 09:51:02;;;;;;;107.32;44.13;;;;;;;8.31;95.44;100507.13;4991296;28;20128;-66
2022/12/03 09:53:28;;;;;;;93.93;43.67;;;;;;;8.34;95.82;100506.56;4990383;28;20037;-65
2022/12/03 09:55:57;;;;;;;96.25;43.40;;;;;;;8.20;96.01;100506.41;5009391;28;20134;-65
2022/12/03 09:58:24;;;;;;;124.63;56.78;;;;;;;8.13;96.35;100503.97;5006868;28;21220;-66
2022/12/03 10:00:51;;;;;;;111.68;47.60;;;;;;;8.26;95.59;100502.44;5006798;28;20492;-64
2022/12/03 10:03:20;;;;;;;166.60;66.05;;;;;;;8.28;95.39;100498.22;4989454;28;20064;-67
2022/12/03 10:05:46;;;;;;;139.23;53.83;;;;;;;8.22;96.31;100495.78;4987395;28;20556;-64
2022/12/03 10:08:20;;;;;;;117.75;48.80;;;;;;;8.47;95.30;100494.72;4993719;28;20030;-64
2022/12/03 10:10:48;;;;;;;108.72;44.47;;;;;;;8.34;95.84;100495.41;5007471;28;20635;-69
2022/12/03 10:13:28;;;;;;;121.82;50.08;;;;;;;8.39;96.75;100485.03;5007181;28;20022;-67
2022/12/03 10:15:56;;;;;;;141.73;60.10;;;;;;;8.38;96.25;100474.16;5000318;28;20512;-66
2022/12/03 10:18:25;;;;;;;121.95;49.17;;;;;;;8.45;95.56;100480.25;5008375;28;20144;-68
2022/12/03 10:20:51;;;;;;;116.47;52.13;;;;;;;8.46;95.48;100486.63;4988357;28;20018;-68
2022/12/03 10:23:22;;;;;;;64.05;31.85;;;;;;;8.26;94.81;100480.97;5008023;28;20022;-68
2022/12/03 10:26:09;;;;;;;66.38;31.90;;;;;;;8.50;94.73;100476.53;4986826;28;20034;-67
2022/12/03 10:28:37;;;;;;;71.00;33.28;;;;;;;8.63;94.50;100469.44;4970606;28;20342;-68
2022/12/03 10:31:09;;;;;;;53.15;28.40;;;;;;;8.55;94.93;100477.34;4994717;28;20029;-68
2022/12/03 10:33:37;;;;;;;62.70;32.67;;;;;;;8.77;93.86;100473.19;5000811;28;20100;-66
2022/12/03 10:36:16;;;;;;;50.42;27.85;;;;;;;8.39;93.56;100468.31;5007766;28;20036;-67
2022/12/03 10:38:42;;;;;;;67.07;33.17;;;;;;;8.61;94.54;100472.53;5008756;28;20037;-67
2022/12/03 10:41:24;;;;;;;121.55;50.45;;;;;;;8.49;94.82;100469.28;5006723;28;20029;-68
2022/12/03 10:43:50;;;;;;;108.40;48.33;;;;;;;8.63;94.78;100469.44;5008497;28;20026;-66
2022/12/03 10:46:21;;;;;;;78.15;34.97;;;;;;;8.73;94.77;100474.91;5002983;28;20417;-68
2022/12/03 10:49:10;;;;;;;54.85;26.90;;;;;;;8.61;92.91;100469.75;5020512;28;20041;-68
2022/12/03 10:51:37;;;;;;;47.55;25.77;;;;;;;8.60;93.01;100464.47;5009754;28;20053;-69
2022/12/03 10:54:04;;;;;;;51.05;27.00;;;;;;;8.55;93.01;100462.56;4994245;28;20464;-69
2022/12/03 10:56:30;;;;;;;55.88;29.10;;;;;;;8.54;93.33;100466.50;5026908;28;20502;-69
2022/12/03 10:58:56;;;;;;;50.03;27.77;;;;;;;8.68;93.28;100472.16;5010201;28;20025;-68
2022/12/03 11:01:24;;;;;;;57.58;27.33;;;;;;;8.76;92.48;100474.31;5027048;28;20040;-67
2022/12/03 11:03:50;;;;;;;87.70;41.58;;;;;;;8.85;91.50;100468.88;5028118;28;20107;-66
2022/12/03 11:06:18;;;;;;;57.13;29.10;;;;;;;8.72;92.20;100478.84;5010362;28;20508;-67
2022/12/03 11:08:47;;;;;;;54.88;27.88;;;;;;;8.72;91.09;100478.84;5008756;28;20029;-68
2022/12/03 11:11:42;;;;;;;59.38;31.08;;;;;;;8.76;90.95;100470.69;5028246;28;20021;-67
2022/12/03 11:14:09;;;;;;;62.45;30.58;;;;;;;8.64;92.01;100476.69;4989751;28;20037;-69
2022/12/03 11:16:38;;;;;;;67.93;32.10;;;;;;;8.66;91.69;100474.44;5031871;28;20471;-69
2022/12/03 11:19:36;;;;;;;58.63;31.48;;;;;;;8.77;91.27;100473.19;5013566;28;20556;-68
2022/12/03 11:22:04;;;;;;;56.70;29.00;;;;;;;8.92;89.58;100465.72;5013111;28;20025;-71
2022/12/03 11:24:38;;;;;;;55.95;29.35;;;;;;;8.68;90.61;100473.00;5030284;28;20037;-69
2022/12/03 11:27:03;;;;;;;82.22;40.47;;;;;;;8.70;91.13;100467.97;5013868;28;20026;-67
2022/12/03 11:29:54;;;;;;;78.72;40.35;;;;;;;8.57;91.85;100463.09;5011517;28;20190;-69
2022/12/03 11:32:39;;;;;;;62.28;33.40;;;;;;;8.68;91.91;100463.81;5012690;28;20467;-72
2022/12/03 11:35:22;;;;;;;58.08;32.85;;;;;;;8.65;92.34;100461.63;5031173;28;20033;-69